Time;durP1;ratioP1;P1;durP2;ratioP2;P2;SDS_P1;SDS_P2;PMS_P1;PMS_P2;Temp;Humidity;BMP_temperature;BMP_pressure;BME280_temperature;BME280_humidity;BME280_pressure;Samples;Min_cycle;Max_cycle;Signal;HPM_P1;HPM_P2
2023/01/08 00:01:31;;;;;;;3.38;1.25;;;23.10;99.90;;;;;;5011660;28;20316;-92
2023/01/08 00:04:02;;;;;;;3.08;1.25;;;23.00;99.90;;;;;;5009108;28;20312;-90
2023/01/08 00:06:33;;;;;;;3.42;1.17;;;23.00;99.90;;;;;;5011883;28;21431;-91
2023/01/08 00:09:06;;;;;;;3.63;0.98;;;23.10;99.90;;;;;;5010801;28;20228;-92
2023/01/08 00:11:37;;;;;;;3.25;1.20;;;23.20;99.90;;;;;;5008705;28;20205;-90
2023/01/08 00:14:09;;;;;;;3.97;1.00;;;23.20;99.90;;;;;;5010765;28;21076;-90
2023/01/08 00:16:40;;;;;;;3.33;0.80;;;23.20;99.90;;;;;;5008605;28;20644;-91
2023/01/08 00:19:12;;;;;;;4.22;1.30;;;23.30;99.90;;;;;;5009939;28;20205;-90
2023/01/08 00:21:42;;;;;;;2.40;1.13;;;23.40;99.90;;;;;;5010109;28;20301;-91
2023/01/08 00:24:18;;;;;;;4.53;1.20;;;23.40;99.90;;;;;;5009490;28;20369;-91
2023/01/08 00:26:49;;;;;;;4.90;1.60;;;23.40;99.90;;;;;;5008756;28;20197;-90
2023/01/08 00:29:20;;;;;;;3.13;1.17;;;23.30;99.90;;;;;;5033587;28;20523;-91
2023/01/08 00:31:51;;;;;;;3.78;1.15;;;23.20;99.90;;;;;;5019518;28;20245;-91
2023/01/08 00:34:23;;;;;;;3.25;0.75;;;23.30;99.90;;;;;;5010712;28;20229;-91
2023/01/08 00:36:53;;;;;;;4.35;1.00;;;23.40;99.90;;;;;;5010541;28;20209;-90
2023/01/08 00:39:28;;;;;;;2.63;0.80;;;23.40;99.90;;;;;;5010962;28;20204;-92
2023/01/08 00:41:59;;;;;;;3.53;0.95;;;23.40;99.90;;;;;;5021102;28;20208;-93
2023/01/08 00:44:30;;;;;;;5.05;1.10;;;23.50;99.90;;;;;;5017360;28;20755;-94
2023/01/08 00:47:01;;;;;;;4.22;0.90;;;23.50;99.90;;;;;;5015021;28;20232;-93
2023/01/08 00:49:35;;;;;;;4.38;0.90;;;23.50;99.90;;;;;;5017349;28;20228;-92
2023/01/08 00:52:06;;;;;;;3.00;1.00;;;23.50;99.90;;;;;;5009372;28;20207;-91
2023/01/08 00:54:42;;;;;;;2.42;0.73;;;23.50;99.90;;;;;;5011856;28;20256;-93
2023/01/08 00:57:12;;;;;;;6.28;1.10;;;23.60;99.90;;;;;;5010223;28;20228;-90
2023/01/08 00:59:43;;;;;;;2.72;0.68;;;23.70;99.90;;;;;;5017508;28;20194;-90
2023/01/08 01:02:17;;;;;;;2.58;0.88;;;23.70;99.90;;;;;;5022531;28;20202;-90
2023/01/08 01:04:47;;;;;;;3.00;0.80;;;23.80;99.90;;;;;;5020307;28;20287;-90
2023/01/08 01:07:18;;;;;;;4.70;0.95;;;23.90;99.90;;;;;;5016381;28;21812;-90
2023/01/08 01:09:54;;;;;;;3.28;0.70;;;23.90;99.90;;;;;;5010809;28;20282;-88
2023/01/08 01:12:25;;;;;;;4.70;1.00;;;23.90;99.90;;;;;;5014047;28;20224;-91
2023/01/08 01:14:55;;;;;;;3.55;0.98;;;24.00;99.90;;;;;;5020950;28;20755;-91
2023/01/08 01:17:26;;;;;;;2.75;0.90;;;24.10;99.90;;;;;;5009681;28;20197;-91
2023/01/08 01:19:57;;;;;;;5.97;0.93;;;23.90;99.90;;;;;;5009871;28;20557;-89
2023/01/08 01:22:28;;;;;;;4.35;0.95;;;24.10;99.90;;;;;;5008753;28;20196;-90
2023/01/08 01:25:02;;;;;;;5.43;1.25;;;24.20;99.90;;;;;;4996898;28;20285;-88
2023/01/08 01:27:32;;;;;;;3.90;1.10;;;24.40;99.90;;;;;;5020405;28;20205;-87
2023/01/08 01:30:03;;;;;;;4.00;1.10;;;24.50;99.90;;;;;;5035505;28;20262;-89
2023/01/08 01:32:39;;;;;;;2.35;0.90;;;24.50;99.90;;;;;;5018605;28;20236;-92
2023/01/08 01:35:10;;;;;;;1.48;0.70;;;24.50;99.90;;;;;;5025679;28;20267;-90
2023/01/08 01:37:44;;;;;;;3.40;0.90;;;24.50;99.90;;;;;;5011298;28;20684;-90
2023/01/08 01:40:21;;;;;;;3.55;1.25;;;24.50;99.90;;;;;;5011607;28;20648;-89
2023/01/08 01:42:53;;;;;;;5.88;1.25;;;24.40;99.90;;;;;;5015969;28;20224;-93
2023/01/08 01:45:27;;;;;;;2.67;0.90;;;24.50;99.90;;;;;;4998278;28;21817;-92
2023/01/08 01:48:02;;;;;;;3.65;0.90;;;24.50;99.90;;;;;;5015058;28;20198;-92
2023/01/08 01:50:38;;;;;;;4.75;2.28;;;24.40;99.90;;;;;;5013433;28;20890;-93
2023/01/08 01:53:12;;;;;;;4.57;1.50;;;24.40;99.90;;;;;;5014642;28;20236;-95
2023/01/08 01:55:46;;;;;;;5.32;2.17;;;24.50;99.90;;;;;;5015063;28;20698;-94
2023/01/08 01:58:20;;;;;;;7.10;1.85;;;24.40;99.90;;;;;;5015428;28;20801;-92
2023/01/08 02:00:56;;;;;;;2.70;0.82;;;24.40;99.90;;;;;;5017209;28;20740;-91
2023/01/08 02:03:32;;;;;;;3.03;0.90;;;24.40;99.90;;;;;;5010338;28;20715;-92
2023/01/08 02:06:11;;;;;;;2.75;1.20;;;24.30;99.90;;;;;;5009884;28;20256;-92
2023/01/08 02:08:51;;;;;;;2.47;0.75;;;24.20;99.90;;;;;;5014392;28;20217;-93
2023/01/08 02:11:32;;;;;;;3.20;1.10;;;24.30;99.90;;;;;;5014063;28;20345;-94
2023/01/08 02:14:08;;;;;;;1.98;0.70;;;24.40;99.90;;;;;;5014128;28;20221;-92
2023/01/08 02:16:45;;;;;;;3.47;0.90;;;24.60;99.90;;;;;;5011719;28;20583;-93
2023/01/08 02:19:25;;;;;;;3.45;0.82;;;24.60;99.90;;;;;;5013428;28;20201;-93
2023/01/08 02:22:05;;;;;;;4.20;1.08;;;24.70;99.90;;;;;;5014998;28;21315;-93
2023/01/08 02:24:48;;;;;;;2.95;1.33;;;24.70;99.90;;;;;;5012660;28;20217;-93
2023/01/08 02:27:21;;;;;;;3.08;0.93;;;24.80;99.90;;;;;;5012437;28;20825;-94
2023/01/08 02:29:56;;;;;;;4.03;1.30;;;24.70;99.90;;;;;;5019777;28;20218;-94
2023/01/08 02:32:34;;;;;;;3.53;1.50;;;24.70;99.90;;;;;;5026050;28;20215;-93
2023/01/08 02:35:05;;;;;;;5.35;1.33;;;24.70;99.90;;;;;;5031651;28;20256;-94
2023/01/08 02:37:36;;;;;;;2.42;0.90;;;24.70;99.90;;;;;;5013319;28;20205;-91
2023/01/08 02:40:17;;;;;;;5.05;1.67;;;24.90;99.90;;;;;;5012993;28;20197;-90
2023/01/08 02:42:57;;;;;;;2.53;1.30;;;24.90;99.90;;;;;;5009676;28;20228;-94
2023/01/08 02:45:41;;;;;;;6.43;1.20;;;25.00;99.90;;;;;;5012354;28;20784;-92
2023/01/08 02:48:16;;;;;;;6.50;1.88;;;24.90;99.90;;;;;;5022537;28;20221;-93
2023/01/08 02:50:54;;;;;;;4.10;0.82;;;24.90;99.90;;;;;;5014035;28;20205;-92
2023/01/08 02:53:29;;;;;;;3.13;0.90;;;25.00;99.90;;;;;;5012993;28;20250;-91
2023/01/08 02:56:03;;;;;;;3.42;1.30;;;24.90;99.90;;;;;;5012924;28;20288;-91
2023/01/08 02:58:37;;;;;;;3.13;1.02;;;25.00;99.90;;;;;;5010620;28;20221;-93
2023/01/08 03:01:11;;;;;;;2.95;1.20;;;24.90;99.90;;;;;;5012550;28;20252;-92
2023/01/08 03:03:45;;;;;;;3.58;1.10;;;25.00;99.90;;;;;;5014075;28;20335;-94
2023/01/08 03:06:19;;;;;;;2.97;0.93;;;24.90;99.90;;;;;;5014205;28;20227;-95
2023/01/08 03:08:53;;;;;;;4.45;1.50;;;25.00;99.90;;;;;;5013434;28;20216;-94
2023/01/08 03:11:26;;;;;;;6.68;2.50;;;25.10;99.90;;;;;;5014587;28;20751;-95
2023/01/08 03:14:06;;;;;;;5.70;1.33;;;25.10;99.90;;;;;;5015054;28;20673;-94
2023/01/08 03:16:40;;;;;;;3.20;1.20;;;25.10;99.90;;;;;;5015137;28;20289;-94
2023/01/08 03:19:14;;;;;;;4.95;1.38;;;25.10;99.90;;;;;;5014375;28;20224;-93
2023/01/08 03:21:47;;;;;;;3.95;1.30;;;24.90;99.90;;;;;;5012974;28;20839;-94
2023/01/08 03:24:22;;;;;;;8.65;3.20;;;24.90;99.90;;;;;;5015472;28;20206;-95
2023/01/08 03:26:55;;;;;;;4.50;1.70;;;25.10;99.90;;;;;;5008907;28;20359;-95
2023/01/08 03:29:29;;;;;;;2.30;1.15;;;25.10;99.90;;;;;;5018039;28;20228;-94
2023/01/08 03:32:08;;;;;;;5.78;1.65;;;25.20;99.90;;;;;;5014700;28;20224;-96
2023/01/08 03:34:40;;;;;;;4.13;1.35;;;25.20;99.90;;;;;;5018103;28;20231;-95
2023/01/08 03:37:14;;;;;;;4.22;1.40;;;25.30;99.90;;;;;;5027081;28;20198;-96
2023/01/08 03:39:49;;;;;;;3.45;1.23;;;25.40;99.90;;;;;;5027646;28;20678;-94
2023/01/08 03:42:21;;;;;;;6.10;1.30;;;25.40;99.90;;;;;;5011439;28;20227;-91
2023/01/08 03:44:54;;;;;;;5.50;1.13;;;25.50;99.90;;;;;;5013983;28;20215;-93
2023/01/08 03:47:26;;;;;;;5.00;1.50;;;25.60;99.90;;;;;;5012372;28;20293;-93
2023/01/08 03:50:01;;;;;;;4.47;1.30;;;25.70;99.90;;;;;;5011743;28;20197;-93
2023/01/08 03:52:35;;;;;;;4.35;0.98;;;25.70;99.90;;;;;;5011664;28;20201;-95
2023/01/08 03:55:07;;;;;;;5.10;1.20;;;25.60;99.90;;;;;;4998401;28;20243;-96
2023/01/08 03:57:38;;;;;;;5.72;1.30;;;25.70;99.90;;;;;;5019709;28;20205;-96
2023/01/08 04:00:16;;;;;;;4.20;1.10;;;25.70;99.90;;;;;;5023056;28;20292;-95
2023/01/08 04:02:49;;;;;;;4.35;1.10;;;25.80;99.90;;;;;;5031679;28;20289;-94
2023/01/08 04:05:20;;;;;;;5.78;1.20;;;25.70;99.90;;;;;;5019033;28;20594;-91
2023/01/08 04:07:53;;;;;;;6.30;1.23;;;25.70;99.90;;;;;;5014196;28;20322;-90
2023/01/08 04:10:26;;;;;;;3.13;0.90;;;25.70;99.90;;;;;;5021342;28;20308;-91
2023/01/08 04:12:57;;;;;;;4.22;1.20;;;25.70;99.90;;;;;;5021568;28;20292;-92
2023/01/08 04:15:29;;;;;;;3.50;1.05;;;25.60;99.90;;;;;;5016139;28;20236;-93
2023/01/08 04:18:00;;;;;;;4.38;1.05;;;25.60;99.90;;;;;;5014959;28;20201;-92
2023/01/08 04:20:32;;;;;;;5.70;0.95;;;25.60;99.90;;;;;;5019784;28;20607;-94
2023/01/08 04:23:03;;;;;;;6.05;1.00;;;25.60;99.90;;;;;;5017566;28;21728;-96
2023/01/08 04:25:37;;;;;;;4.90;0.95;;;25.60;99.90;;;;;;5035129;28;20297;-96
2023/01/08 04:28:08;;;;;;;3.15;0.95;;;25.70;99.90;;;;;;5036210;28;20197;-96
2023/01/08 04:30:55;;;;;;;3.50;1.30;;;25.70;99.90;;;;;;5037871;28;20196;-94
2023/01/08 04:33:27;;;;;;;4.38;1.23;;;26.00;99.90;;;;;;5018561;28;20295;-94
2023/01/08 04:36:00;;;;;;;6.32;1.10;;;26.10;99.90;;;;;;5014508;28;20722;-96
2023/01/08 04:38:31;;;;;;;4.97;1.10;;;26.20;99.90;;;;;;5014919;28;20225;-96
2023/01/08 04:41:05;;;;;;;4.65;1.10;;;26.30;99.90;;;;;;5035131;28;20225;-93
2023/01/08 04:43:38;;;;;;;3.05;1.08;;;26.40;99.90;;;;;;5039415;28;20198;-93
2023/01/08 04:46:12;;;;;;;5.85;1.10;;;26.50;99.90;;;;;;5041074;28;20236;-94
2023/01/08 04:48:43;;;;;;;6.40;1.10;;;26.50;99.90;;;;;;5039424;28;20201;-95
2023/01/08 04:51:15;;;;;;;4.70;1.23;;;26.50;99.90;;;;;;5040543;28;20197;-94
2023/01/08 04:53:48;;;;;;;4.40;0.95;;;26.50;99.90;;;;;;5035669;28;20193;-94
2023/01/08 04:56:21;;;;;;;5.65;1.20;;;26.50;99.90;;;;;;5020993;28;20744;-95
2023/01/08 04:58:53;;;;;;;5.80;1.08;;;26.60;99.90;;;;;;5020367;28;20201;-95
2023/01/08 05:01:29;;;;;;;3.63;0.95;;;26.60;99.90;;;;;;5020387;28;20198;-94
2023/01/08 05:04:01;;;;;;;3.50;1.00;;;26.60;99.90;;;;;;5021604;28;20231;-94
2023/01/08 05:06:36;;;;;;;5.05;1.10;;;26.50;99.90;;;;;;5018634;28;20205;-94
2023/01/08 05:09:11;;;;;;;3.38;0.98;;;26.60;99.90;;;;;;5018160;28;20197;-95
2023/01/08 05:11:42;;;;;;;4.80;0.95;;;26.40;99.90;;;;;;5020710;28;20801;-95
2023/01/08 05:14:16;;;;;;;3.60;1.05;;;26.50;99.90;;;;;;5017058;28;20221;-89
2023/01/08 05:16:50;;;;;;;5.57;1.60;;;26.70;99.90;;;;;;5016309;28;20288;-89
2023/01/08 05:19:24;;;;;;;6.38;1.20;;;26.80;99.90;;;;;;5021658;28;20212;-90
2023/01/08 05:21:54;;;;;;;4.32;0.90;;;27.00;99.90;;;;;;5022146;28;20202;-90
2023/01/08 05:24:26;;;;;;;3.35;1.05;;;27.00;99.90;;;;;;5021111;28;20224;-89
2023/01/08 05:26:59;;;;;;;4.00;0.95;;;27.30;99.90;;;;;;5020628;28;20239;-91
2023/01/08 05:29:34;;;;;;;5.72;1.20;;;27.50;99.90;;;;;;5024991;28;20198;-91
2023/01/08 05:32:18;;;;;;;6.50;1.30;;;27.60;99.90;;;;;;5033518;28;20225;-90
2023/01/08 05:34:49;;;;;;;5.70;1.30;;;27.70;99.90;;;;;;5035641;28;20221;-90
2023/01/08 05:37:20;;;;;;;5.88;1.05;;;27.90;99.90;;;;;;5035569;28;20208;-91
2023/01/08 05:39:51;;;;;;;2.83;0.98;;;28.10;99.90;;;;;;5032933;28;20252;-92
2023/01/08 05:42:22;;;;;;;4.45;0.98;;;28.30;99.90;;;;;;5018027;28;20244;-89
2023/01/08 05:44:53;;;;;;;3.58;1.08;;;28.20;99.40;;;;;;5020864;28;20208;-91
2023/01/08 05:47:29;;;;;;;4.30;1.17;;;28.10;99.90;;;;;;5016295;28;20217;-92
2023/01/08 05:50:01;;;;;;;5.03;1.20;;;28.10;99.90;;;;;;5015527;28;20217;-91
2023/01/08 05:52:38;;;;;;;3.13;1.23;;;28.20;99.90;;;;;;5016751;28;20225;-90
2023/01/08 05:55:10;;;;;;;5.00;1.25;;;28.40;99.90;;;;;;5018889;28;20231;-92
2023/01/08 05:57:43;;;;;;;4.72;1.30;;;28.70;99.90;;;;;;5012552;28;20270;-92
2023/01/08 06:00:18;;;;;;;4.60;1.25;;;28.80;99.90;;;;;;5017466;28;20217;-92
2023/01/08 06:02:56;;;;;;;2.47;0.85;;;28.90;99.90;;;;;;5020691;28;20695;-93
2023/01/08 06:05:29;;;;;;;4.53;1.25;;;29.10;98.30;;;;;;5021664;28;20282;-93
2023/01/08 06:08:00;;;;;;;3.08;1.00;;;29.10;98.00;;;;;;5019747;28;20676;-92
2023/01/08 06:10:35;;;;;;;4.70;1.10;;;29.10;98.60;;;;;;5018384;28;20296;-93
2023/01/08 06:13:10;;;;;;;4.88;1.35;;;29.40;98.60;;;;;;5017175;28;20227;-92
2023/01/08 06:15:44;;;;;;;3.88;1.00;;;29.50;98.10;;;;;;5021697;28;20300;-92
2023/01/08 06:18:17;;;;;;;2.55;0.90;;;29.60;96.20;;;;;;5034387;28;20228;-94
2023/01/08 06:20:50;;;;;;;3.63;1.17;;;29.40;94.40;;;;;;5024707;28;20213;-92
2023/01/08 06:23:22;;;;;;;3.47;1.08;;;29.50;96.90;;;;;;5021709;28;20197;-93
2023/01/08 06:25:57;;;;;;;5.40;1.42;;;29.60;96.70;;;;;;5018251;28;20243;-94
2023/01/08 06:28:30;;;;;;;5.25;1.20;;;29.50;95.60;;;;;;5017749;28;20292;-93
2023/01/08 06:31:04;;;;;;;7.82;1.30;;;29.50;96.30;;;;;;5017917;28;20707;-93
2023/01/08 06:33:39;;;;;;;4.32;1.05;;;29.60;94.90;;;;;;5018163;28;20304;-93
2023/01/08 06:36:10;;;;;;;5.32;1.58;;;29.80;94.90;;;;;;5027588;28;20355;-93
2023/01/08 06:38:41;;;;;;;8.55;1.20;;;30.00;94.80;;;;;;5022624;28;20265;-93
2023/01/08 06:41:14;;;;;;;4.47;1.13;;;29.90;91.70;;;;;;5030253;28;20186;-93
2023/01/08 06:43:48;;;;;;;3.13;1.23;;;30.10;93.90;;;;;;5028333;28;20292;-92
2023/01/08 06:46:19;;;;;;;4.55;1.25;;;30.20;91.50;;;;;;5022425;28;20189;-94
2023/01/08 06:48:57;;;;;;;4.90;1.20;;;29.90;90.80;;;;;;5021407;28;20288;-94
2023/01/08 06:51:27;;;;;;;3.67;1.13;;;30.20;90.50;;;;;;5016549;28;20221;-95
2023/01/08 06:53:58;;;;;;;3.10;0.90;;;30.50;88.70;;;;;;5010660;28;20248;-88
2023/01/08 06:56:29;;;;;;;6.85;1.10;;;30.70;90.00;;;;;;5010366;28;20221;-86
2023/01/08 06:59:00;;;;;;;2.60;0.70;;;31.00;88.70;;;;;;5013559;28;20193;-87
2023/01/08 07:01:31;;;;;;;4.47;1.10;;;31.20;87.80;;;;;;5014807;28;20205;-88
2023/01/08 07:04:07;;;;;;;5.45;1.13;;;31.60;85.60;;;;;;5016388;28;20261;-88
2023/01/08 07:06:37;;;;;;;2.90;0.95;;;31.80;79.30;;;;;;5014751;28;20216;-87
2023/01/08 07:09:08;;;;;;;3.90;1.10;;;31.90;81.50;;;;;;5018277;28;20190;-86
2023/01/08 07:11:42;;;;;;;2.75;1.02;;;32.20;79.30;;;;;;5011644;28;20296;-87
2023/01/08 07:14:13;;;;;;;4.32;1.10;;;32.70;74.70;;;;;;5011436;28;20192;-85
2023/01/08 07:16:43;;;;;;;5.78;1.27;;;32.60;72.00;;;;;;5022638;28;20468;-87
2023/01/08 07:19:16;;;;;;;3.50;0.93;;;32.40;73.00;;;;;;5027480;28;20261;-87
2023/01/08 07:21:47;;;;;;;2.95;1.00;;;32.50;70.10;;;;;;5010580;28;20661;-87
2023/01/08 07:24:20;;;;;;;5.43;1.10;;;32.50;68.50;;;;;;5008227;28;20248;-87
2023/01/08 07:26:51;;;;;;;5.35;1.48;;;32.50;68.60;;;;;;5006349;28;20461;-88
2023/01/08 07:29:21;;;;;;;2.78;1.30;;;32.60;68.60;;;;;;5016333;28;20288;-88
2023/01/08 07:31:52;;;;;;;4.00;0.90;;;32.50;65.10;;;;;;5012669;28;20951;-93
2023/01/08 07:34:29;;;;;;;3.42;0.90;;;32.60;63.90;;;;;;5015549;28;20205;-90
2023/01/08 07:37:00;;;;;;;7.35;1.00;;;32.80;63.10;;;;;;5019070;28;20213;-89
2023/01/08 07:39:33;;;;;;;3.25;1.02;;;32.70;64.90;;;;;;5024197;28;20219;-90
2023/01/08 07:42:03;;;;;;;3.97;1.10;;;32.50;63.30;;;;;;5029121;28;20248;-89
2023/01/08 07:44:34;;;;;;;5.55;1.73;;;32.70;63.40;;;;;;5027075;28;20276;-90
2023/01/08 07:47:05;;;;;;;4.90;1.30;;;32.50;64.50;;;;;;5011425;28;20216;-90
2023/01/08 07:49:40;;;;;;;4.95;1.40;;;32.40;65.30;;;;;;5011783;28;20203;-91
2023/01/08 07:52:11;;;;;;;3.97;1.30;;;32.30;65.30;;;;;;5011143;28;20667;-90
2023/01/08 07:54:45;;;;;;;2.15;1.15;;;32.30;65.50;;;;;;5011361;28;20240;-89
2023/01/08 07:57:16;;;;;;;3.97;1.35;;;32.20;64.40;;;;;;5012637;28;20228;-89
2023/01/08 07:59:46;;;;;;;4.03;1.20;;;32.00;67.10;;;;;;5012727;28;20202;-88
2023/01/08 08:02:17;;;;;;;2.40;0.80;;;32.10;66.30;;;;;;5007894;28;20209;-88
2023/01/08 08:04:50;;;;;;;2.55;0.90;;;32.00;67.80;;;;;;5009464;28;20243;-86
2023/01/08 08:07:21;;;;;;;5.10;1.30;;;31.80;68.10;;;;;;5009162;28;20199;-88
2023/01/08 08:09:54;;;;;;;3.88;1.10;;;31.50;68.50;;;;;;5008907;28;20289;-88
2023/01/08 08:12:26;;;;;;;2.65;1.00;;;31.20;68.00;;;;;;5008745;28;20209;-89
2023/01/08 08:14:57;;;;;;;2.70;1.05;;;30.90;69.40;;;;;;5011157;28;20205;-89
2023/01/08 08:17:29;;;;;;;3.42;1.25;;;30.40;69.70;;;;;;5006895;28;20232;-86
2023/01/08 08:20:02;;;;;;;2.90;1.23;;;29.80;73.50;;;;;;5019718;28;20193;-89
2023/01/08 08:22:35;;;;;;;3.22;0.98;;;29.30;76.30;;;;;;5021724;28;20292;-87
2023/01/08 08:25:08;;;;;;;3.78;1.20;;;28.90;81.40;;;;;;5030355;28;20268;-88
2023/01/08 08:27:41;;;;;;;3.08;1.27;;;28.40;85.70;;;;;;5030440;28;20217;-84
2023/01/08 08:30:13;;;;;;;5.07;1.70;;;28.00;90.20;;;;;;5022205;28;20198;-88
2023/01/08 08:32:44;;;;;;;4.60;1.50;;;27.60;92.50;;;;;;5018777;28;20197;-87
2023/01/08 08:35:17;;;;;;;4.57;1.88;;;27.10;94.70;;;;;;5015082;28;20497;-85
2023/01/08 08:37:48;;;;;;;3.30;1.27;;;26.80;97.00;;;;;;5018353;28;20202;-86
2023/01/08 08:40:19;;;;;;;4.93;1.33;;;26.50;99.90;;;;;;5019712;28;20610;-86
2023/01/08 08:42:50;;;;;;;4.90;1.38;;;26.20;99.90;;;;;;5034079;28;20716;-85
2023/01/08 08:45:21;;;;;;;5.43;1.05;;;25.90;99.90;;;;;;5021103;28;20205;-87
2023/01/08 08:47:52;;;;;;;3.17;1.13;;;25.80;99.90;;;;;;5017338;28;20226;-88
2023/01/08 08:50:25;;;;;;;3.78;1.45;;;25.50;99.90;;;;;;5014409;28;20988;-88
2023/01/08 08:53:01;;;;;;;6.38;1.05;;;25.30;99.90;;;;;;5015350;28;20202;-86
2023/01/08 08:55:38;;;;;;;2.70;1.02;;;25.10;99.90;;;;;;5027691;28;20212;-86
2023/01/08 08:58:15;;;;;;;3.97;0.88;;;25.00;99.90;;;;;;5033228;28;20201;-86
2023/01/08 09:00:49;;;;;;;2.63;1.02;;;24.80;99.90;;;;;;5022494;28;20195;-88
2023/01/08 09:03:20;;;;;;;2.92;0.95;;;24.70;99.90;;;;;;5035641;28;20375;-88
2023/01/08 09:05:54;;;;;;;3.83;1.10;;;24.60;99.90;;;;;;5029810;28;20229;-86
2023/01/08 09:08:25;;;;;;;4.70;1.10;;;24.40;99.90;;;;;;5028350;28;20228;-87
2023/01/08 09:10:57;;;;;;;2.65;0.90;;;24.40;99.90;;;;;;5035854;28;20189;-86
2023/01/08 09:13:28;;;;;;;5.53;1.10;;;24.30;99.90;;;;;;5038637;28;20259;-86
2023/01/08 09:16:02;;;;;;;4.85;1.10;;;24.20;99.90;;;;;;5044891;28;20304;-87
2023/01/08 09:18:37;;;;;;;4.35;1.05;;;24.10;99.90;;;;;;5044890;28;20227;-87
2023/01/08 09:24:11;;;;;;;3.22;0.93;;;24.00;99.90;;;;;;5041251;28;20217;-89
2023/01/08 09:26:44;;;;;;;1.83;0.70;;;23.90;99.90;;;;;;5043299;28;20662;-88
2023/01/08 09:29:15;;;;;;;4.53;1.15;;;23.90;99.90;;;;;;5047693;28;20194;-90
2023/01/08 09:31:56;;;;;;;3.45;0.93;;;23.90;99.90;;;;;;5049662;28;20193;-91
2023/01/08 09:34:31;;;;;;;4.93;1.70;;;23.80;99.90;;;;;;5047194;28;20209;-88
2023/01/08 09:37:04;;;;;;;4.97;1.90;;;23.80;99.90;;;;;;5047292;28;20208;-88
2023/01/08 09:39:39;;;;;;;3.85;1.08;;;23.70;99.90;;;;;;5034454;28;20173;-89
2023/01/08 09:42:13;;;;;;;4.63;1.13;;;23.70;99.90;;;;;;5044553;28;20196;-82
2023/01/08 09:44:50;;;;;;;4.90;1.23;;;23.60;99.90;;;;;;5053240;28;20194;-83
2023/01/08 09:47:28;;;;;;;7.13;1.50;;;23.60;99.90;;;;;;5050080;28;20635;-90
2023/01/08 09:50:04;;;;;;;3.80;1.50;;;23.60;99.90;;;;;;5049584;28;20203;-89
2023/01/08 09:52:40;;;;;;;3.88;1.10;;;23.50;99.90;;;;;;5047928;28;20223;-88
2023/01/08 09:55:16;;;;;;;3.60;1.20;;;23.40;99.90;;;;;;5045024;28;20193;-90
2023/01/08 09:57:49;;;;;;;3.38;0.80;;;23.40;99.90;;;;;;5047939;28;20244;-90
2023/01/08 10:00:28;;;;;;;4.95;1.30;;;23.50;99.90;;;;;;5033175;28;20638;-88
2023/01/08 10:03:02;;;;;;;2.95;0.80;;;23.40;99.90;;;;;;5032685;28;20222;-88
2023/01/08 10:05:56;;;;;;;4.30;1.02;;;23.40;99.90;;;;;;5037880;28;20218;-90
2023/01/08 10:11:05;;;;;;;2.78;1.00;;;23.40;99.90;;;;;;5081854;22;20265;-92
2023/01/08 10:13:48;;;;;;;3.05;0.80;;;23.40;99.90;;;;;;5082579;28;20223;-87
2023/01/08 10:16:26;;;;;;;1.55;0.73;;;23.30;99.90;;;;;;5081778;28;20243;-86
2023/01/08 10:19:01;;;;;;;2.85;0.80;;;23.30;99.90;;;;;;5064014;28;20199;-87
2023/01/08 10:21:37;;;;;;;2.58;0.90;;;23.30;99.90;;;;;;5071332;28;20198;-87
2023/01/08 10:24:12;;;;;;;4.90;1.20;;;23.30;99.90;;;;;;5075254;28;20203;-86
2023/01/08 10:29:28;;;;;;;3.50;0.90;;;23.30;99.90;;;;;;5081514;28;20188;-85
2023/01/08 10:32:04;;;;;;;2.25;0.95;;;23.20;99.90;;;;;;5094145;28;20248;-88
2023/01/08 10:34:58;;;;;;;2.13;0.85;;;23.20;99.90;;;;;;5080721;28;20200;-88
2023/01/08 10:37:33;;;;;;;2.75;0.80;;;23.10;99.90;;;;;;5082008;28;20761;-89
2023/01/08 10:40:22;;;;;;;4.28;1.13;;;23.20;99.90;;;;;;5078491;28;20226;-86
2023/01/08 10:43:06;;;;;;;3.78;1.10;;;23.10;99.90;;;;;;5088381;28;20207;-88
2023/01/08 10:45:37;;;;;;;2.70;0.75;;;23.10;99.90;;;;;;5060877;28;20206;-87
2023/01/08 10:48:17;;;;;;;3.20;0.82;;;23.00;99.90;;;;;;5157329;22;20216;-88
2023/01/08 10:50:48;;;;;;;3.38;0.90;;;23.00;99.90;;;;;;5053709;28;20279;-90
2023/01/08 10:53:26;;;;;;;2.97;1.02;;;23.00;99.90;;;;;;5050380;28;20200;-88
2023/01/08 10:56:09;;;;;;;3.17;0.85;;;23.00;99.90;;;;;;5056336;28;20259;-89
2023/01/08 10:58:47;;;;;;;3.30;0.90;;;22.90;99.90;;;;;;5055716;28;20284;-89
2023/01/08 11:01:23;;;;;;;3.10;0.80;;;22.80;99.90;;;;;;5063674;28;20203;-88
2023/01/08 11:03:58;;;;;;;2.33;0.68;;;22.90;99.90;;;;;;5042725;28;20615;-89
2023/01/08 11:06:34;;;;;;;1.50;0.80;;;22.80;99.90;;;;;;5045867;28;20193;-88
2023/01/08 11:09:09;;;;;;;2.15;0.88;;;22.80;99.90;;;;;;5064370;28;20196;-88
2023/01/08 11:11:41;;;;;;;3.35;0.88;;;22.70;99.90;;;;;;5057731;28;20221;-87
2023/01/08 11:14:25;;;;;;;2.90;0.77;;;22.70;99.90;;;;;;5062592;28;20255;-88
2023/01/08 11:16:56;;;;;;;2.65;0.80;;;22.70;99.90;;;;;;5058497;28;20225;-87
2023/01/08 11:19:28;;;;;;;3.20;0.90;;;22.70;99.90;;;;;;5056540;28;20225;-89
2023/01/08 11:22:02;;;;;;;3.35;0.80;;;22.70;99.90;;;;;;5061914;28;20231;-89
2023/01/08 11:24:34;;;;;;;2.85;0.80;;;22.70;99.90;;;;;;5045158;28;20653;-88
2023/01/08 11:27:11;;;;;;;2.83;0.70;;;22.70;99.90;;;;;;5046736;28;20232;-88
2023/01/08 11:29:48;;;;;;;2.38;0.80;;;22.70;99.90;;;;;;5054633;28;20247;-88
2023/01/08 11:32:40;;;;;;;3.58;1.08;;;22.70;99.90;;;;;;5061683;28;20220;-88
2023/01/08 11:35:19;;;;;;;3.25;1.00;;;22.60;99.90;;;;;;5053650;28;20272;-89
2023/01/08 11:37:53;;;;;;;1.65;0.68;;;22.60;99.90;;;;;;5061056;28;20236;-86
2023/01/08 11:40:35;;;;;;;2.72;0.85;;;22.60;99.90;;;;;;5065637;28;20191;-86
2023/01/08 11:43:26;;;;;;;2.72;0.65;;;22.60;99.90;;;;;;5070123;28;20746;-87
2023/01/08 11:46:15;;;;;;;1.90;0.75;;;22.50;99.90;;;;;;5051767;28;20208;-87
2023/01/08 11:49:05;;;;;;;5.05;1.02;;;22.50;99.90;;;;;;5059774;28;20331;-88
2023/01/08 11:52:03;;;;;;;5.70;1.20;;;22.50;99.90;;;;;;5059051;28;20303;-88
2023/01/08 11:54:54;;;;;;;4.63;1.13;;;22.50;99.90;;;;;;5064357;28;20228;-89
2023/01/08 11:57:37;;;;;;;4.35;1.13;;;22.50;99.90;;;;;;5050404;28;20235;-89
2023/01/08 12:00:23;;;;;;;5.18;1.30;;;22.50;99.90;;;;;;5058572;28;20220;-88
2023/01/08 12:02:59;;;;;;;7.10;1.45;;;22.40;99.90;;;;;;5063650;28;20256;-88
2023/01/08 12:05:41;;;;;;;5.55;1.40;;;22.30;99.90;;;;;;5059753;28;20192;-88
2023/01/08 12:08:23;;;;;;;5.95;1.90;;;22.40;99.90;;;;;;5059678;28;20216;-86
2023/01/08 12:11:05;;;;;;;7.90;1.42;;;22.30;99.90;;;;;;5076032;28;20309;-87
2023/01/08 12:13:46;;;;;;;3.63;1.52;;;22.20;99.90;;;;;;5062733;28;20231;-87
2023/01/08 12:16:29;;;;;;;3.50;1.15;;;22.20;99.90;;;;;;5058934;28;20200;-88
2023/01/08 12:19:24;;;;;;;3.47;1.30;;;22.10;99.90;;;;;;5053545;28;20256;-87
2023/01/08 12:22:17;;;;;;;3.63;1.13;;;22.00;99.90;;;;;;5055754;28;20231;-86
2023/01/08 12:25:23;;;;;;;3.55;1.17;;;22.00;99.90;;;;;;5055330;28;20313;-85
2023/01/08 12:28:07;;;;;;;4.68;1.20;;;22.00;99.90;;;;;;5051940;28;20244;-87
2023/01/08 12:30:53;;;;;;;5.72;1.25;;;21.90;99.90;;;;;;5056462;28;20665;-87
2023/01/08 12:33:36;;;;;;;2.28;1.08;;;21.90;99.90;;;;;;5044112;28;20257;-84
2023/01/08 12:36:14;;;;;;;4.43;1.35;;;21.90;99.90;;;;;;5069041;28;20244;-87
2023/01/08 12:38:46;;;;;;;3.78;1.08;;;21.90;99.90;;;;;;5064011;28;20315;-87
2023/01/08 12:41:21;;;;;;;2.75;1.00;;;21.90;99.90;;;;;;5072748;28;20260;-87
2023/01/08 12:43:59;;;;;;;3.00;1.17;;;21.80;99.90;;;;;;5055341;28;20581;-88
2023/01/08 12:46:35;;;;;;;1.90;0.88;;;21.90;99.90;;;;;;5053726;28;20275;-86
2023/01/08 12:49:08;;;;;;;4.20;1.13;;;21.80;99.90;;;;;;5048989;28;20699;-86
2023/01/08 12:51:48;;;;;;;3.95;1.20;;;21.80;99.90;;;;;;5052503;28;20300;-86
2023/01/08 12:54:28;;;;;;;1.90;1.00;;;21.80;99.90;;;;;;5051072;28;20192;-88
2023/01/08 12:57:09;;;;;;;3.03;1.08;;;21.80;99.90;;;;;;5051038;28;20691;-86
2023/01/08 12:59:47;;;;;;;3.88;1.33;;;21.80;99.90;;;;;;5053364;28;20227;-86
2023/01/08 13:02:34;;;;;;;5.75;1.30;;;21.70;99.90;;;;;;5052720;28;20292;-85
2023/01/08 13:05:18;;;;;;;2.58;1.08;;;21.70;99.90;;;;;;5051160;28;20220;-86
2023/01/08 13:07:55;;;;;;;3.33;1.20;;;21.70;99.90;;;;;;5052366;28;20196;-85
2023/01/08 13:10:35;;;;;;;4.50;1.33;;;21.70;99.90;;;;;;5052343;28;20200;-85
2023/01/08 13:13:08;;;;;;;4.07;1.35;;;21.70;99.90;;;;;;5051723;28;20299;-86
2023/01/08 13:15:40;;;;;;;4.07;1.35;;;21.60;99.90;;;;;;5053271;28;20280;-86
2023/01/08 13:18:19;;;;;;;3.20;1.30;;;21.60;99.90;;;;;;5051572;28;20665;-86
2023/01/08 13:20:59;;;;;;;3.33;1.10;;;21.60;99.90;;;;;;5054378;28;20578;-86
2023/01/08 13:23:44;;;;;;;2.40;1.33;;;21.60;99.90;;;;;;5054362;28;20283;-86
2023/01/08 13:26:16;;;;;;;5.05;1.10;;;21.50;99.90;;;;;;5042917;28;20300;-87
2023/01/08 13:28:48;;;;;;;4.35;1.30;;;21.50;99.90;;;;;;5053389;28;20222;-87
2023/01/08 13:31:29;;;;;;;2.85;1.10;;;21.50;99.90;;;;;;5052412;28;20582;-86
2023/01/08 13:34:01;;;;;;;3.70;1.20;;;21.40;99.90;;;;;;5052113;28;20258;-87
2023/01/08 13:36:32;;;;;;;4.88;1.00;;;21.40;99.90;;;;;;5049134;28;20679;-86